createdAt,value
2019-01-04T00:00:10.855Z,102551
2019-01-04T00:02:39.707Z,102556
2019-01-04T00:05:08.553Z,102545
2019-01-04T00:07:37.392Z,102552
2019-01-04T00:10:06.235Z,102551
2019-01-04T00:12:35.083Z,102559
2019-01-04T00:15:03.918Z,102558
2019-01-04T00:17:32.772Z,102564
2019-01-04T00:20:01.635Z,102558
2019-01-04T00:22:31.221Z,102564
2019-01-04T00:25:00.801Z,102576
2019-01-04T00:27:29.634Z,102562
2019-01-04T00:29:59.212Z,102563
2019-01-04T00:32:28.050Z,102563
2019-01-04T00:34:56.890Z,102569
2019-01-04T00:37:25.770Z,102572
2019-01-04T00:39:54.575Z,102570
2019-01-04T00:42:23.414Z,102560
2019-01-04T00:44:52.260Z,102563
2019-01-04T00:47:22.648Z,102560
2019-01-04T00:49:51.494Z,102555
2019-01-04T00:52:20.375Z,102560
2019-01-04T00:54:50.069Z,102560
2019-01-04T00:57:28.538Z,102551
2019-01-04T01:00:04.206Z,102548
2019-01-04T01:05:36.631Z,102548
2019-01-04T01:10:56.410Z,102549
2019-01-04T01:13:31.860Z,102545
2019-01-04T01:19:01.387Z,102546
2019-01-04T01:21:37.038Z,102542
2019-01-04T01:27:02.339Z,102552
2019-01-04T01:29:41.974Z,102542
2019-01-04T01:32:28.634Z,102549
2019-01-04T01:34:59.496Z,102549
2019-01-04T01:37:35.914Z,102544
2019-01-04T01:40:19.254Z,102548
2019-01-04T01:45:35.832Z,102542
2019-01-04T01:48:04.669Z,102547
2019-01-04T01:50:39.096Z,102540
2019-01-04T01:53:07.937Z,102535
2019-01-04T01:55:36.769Z,102540
2019-01-04T01:58:05.612Z,102532
2019-01-04T02:00:34.440Z,102536
2019-01-04T02:03:03.287Z,102544
2019-01-04T02:05:32.123Z,102541
2019-01-04T02:08:01.714Z,102539
2019-01-04T02:10:31.295Z,102536
2019-01-04T02:13:00.136Z,102549
2019-01-04T02:15:28.990Z,102537
2019-01-04T02:17:57.844Z,102549
2019-01-04T02:20:26.694Z,102554
2019-01-04T02:22:56.278Z,102556
2019-01-04T02:25:25.109Z,102554
2019-01-04T02:27:53.961Z,102556
2019-01-04T02:30:23.552Z,102554
2019-01-04T02:32:52.392Z,102553
2019-01-04T02:35:21.219Z,102548
2019-01-04T02:37:50.055Z,102556
2019-01-04T02:40:18.917Z,102560
2019-01-04T02:42:47.766Z,102559
2019-01-04T02:45:16.611Z,102560
2019-01-04T02:47:46.191Z,102557
2019-01-04T02:50:15.056Z,102555
2019-01-04T02:52:43.875Z,102560
2019-01-04T02:55:12.727Z,102571
2019-01-04T02:57:41.566Z,102568
2019-01-04T03:00:11.160Z,102567
2019-01-04T03:02:39.981Z,102560
2019-01-04T03:05:08.816Z,102560
2019-01-04T03:07:37.680Z,102560
2019-01-04T03:10:06.516Z,102555
2019-01-04T03:12:35.361Z,102545
2019-01-04T03:15:04.190Z,102547
2019-01-04T03:17:33.037Z,102549
2019-01-04T03:20:01.876Z,102536
2019-01-04T03:22:30.728Z,102537
2019-01-04T03:24:59.565Z,102535
2019-01-04T03:27:29.147Z,102528
2019-01-04T03:29:57.982Z,102534
2019-01-04T03:32:26.830Z,102533
2019-01-04T03:34:56.427Z,102531
2019-01-04T03:37:25.259Z,102538
2019-01-04T03:39:54.120Z,102535
2019-01-04T03:42:22.936Z,102536
2019-01-04T03:44:52.523Z,102524
2019-01-04T03:47:21.368Z,102528
2019-01-04T03:49:50.202Z,102530
2019-01-04T03:52:19.790Z,102534
2019-01-04T03:54:48.637Z,102540
2019-01-04T03:57:17.473Z,102540
2019-01-04T03:59:46.318Z,102541
2019-01-04T04:02:15.159Z,102538
2019-01-04T04:04:43.998Z,102537
2019-01-04T04:07:12.834Z,102525
2019-01-04T04:09:42.434Z,102524
2019-01-04T04:12:12.021Z,102531
2019-01-04T04:14:40.861Z,102531
2019-01-04T04:17:10.448Z,102532
2019-01-04T04:19:39.298Z,102534
2019-01-04T04:22:08.156Z,102527
2019-01-04T04:24:37.019Z,102519
2019-01-04T04:27:06.639Z,102504
2019-01-04T04:29:35.441Z,102502
2019-01-04T04:32:04.290Z,102502
2019-01-04T04:34:33.157Z,102502
2019-01-04T04:37:01.991Z,102504
2019-01-04T04:39:31.582Z,102510
2019-01-04T04:42:00.434Z,102517
2019-01-04T04:44:29.265Z,102514
2019-01-04T04:46:58.121Z,102516
2019-01-04T04:49:26.962Z,102504
2019-01-04T04:51:56.540Z,102504
2019-01-04T04:54:25.370Z,102505
2019-01-04T04:56:54.217Z,102493
2019-01-04T04:59:23.059Z,102492
2019-01-04T05:01:51.895Z,102489
2019-01-04T05:04:20.741Z,102487
2019-01-04T05:06:49.575Z,102500
2019-01-04T05:09:18.428Z,102501
2019-01-04T05:11:47.263Z,102495
2019-01-04T05:14:16.844Z,102494
2019-01-04T05:16:45.688Z,102497
2019-01-04T05:19:14.528Z,102498
2019-01-04T05:21:43.360Z,102508
2019-01-04T05:24:12.203Z,102494
2019-01-04T05:26:41.046Z,102507
2019-01-04T05:29:09.885Z,102518
2019-01-04T05:31:39.301Z,102515
2019-01-04T05:34:08.873Z,102510
2019-01-04T05:36:37.707Z,102505
2019-01-04T05:39:06.556Z,102515
2019-01-04T05:41:35.389Z,102517
2019-01-04T05:44:04.971Z,102512
2019-01-04T05:46:33.795Z,102525
2019-01-04T05:49:02.628Z,102520
2019-01-04T05:51:31.488Z,102522
2019-01-04T05:54:00.316Z,102517
2019-01-04T05:56:29.145Z,102518
2019-01-04T05:58:58.027Z,102521
2019-01-04T06:01:26.876Z,102512
2019-01-04T06:03:55.715Z,102508
2019-01-04T06:06:25.586Z,102510
2019-01-04T06:08:54.420Z,102518
2019-01-04T06:11:23.261Z,102499
2019-01-04T06:13:52.089Z,102505
2019-01-04T06:16:21.658Z,102500
2019-01-04T06:18:50.494Z,102502
2019-01-04T06:21:19.325Z,102502
2019-01-04T06:23:48.161Z,102513
2019-01-04T06:26:17.005Z,102513
2019-01-04T06:28:45.834Z,102511
2019-01-04T06:31:15.486Z,102518
2019-01-04T06:33:45.002Z,102515
2019-01-04T06:36:13.845Z,102519
2019-01-04T06:38:42.689Z,102524
2019-01-04T06:41:11.517Z,102522
2019-01-04T06:43:41.083Z,102518
2019-01-04T06:46:10.052Z,102510
2019-01-04T06:48:38.892Z,102520
2019-01-04T06:51:07.747Z,102516
2019-01-04T06:53:36.595Z,102528
2019-01-04T06:56:05.441Z,102520
2019-01-04T06:58:34.280Z,102523
2019-01-04T07:01:03.170Z,102530
2019-01-04T07:03:32.546Z,102537
2019-01-04T07:06:02.107Z,102538
2019-01-04T07:08:33.982Z,102539
2019-01-04T07:11:02.574Z,102541
2019-01-04T07:13:31.417Z,102548
2019-01-04T07:16:00.251Z,102545
2019-01-04T07:18:29.108Z,102547
2019-01-04T07:20:57.940Z,102551
2019-01-04T07:23:27.519Z,102553
2019-01-04T07:25:56.663Z,102556
2019-01-04T07:28:26.225Z,102564
2019-01-04T07:30:55.069Z,102565
2019-01-04T07:33:23.913Z,102558
2019-01-04T07:35:52.762Z,102567
2019-01-04T07:38:21.582Z,102561
2019-01-04T07:40:50.433Z,102574
2019-01-04T07:43:19.269Z,102578
2019-01-04T07:45:48.181Z,102581
2019-01-04T07:48:16.963Z,102584
2019-01-04T07:50:46.553Z,102587
2019-01-04T07:53:15.402Z,102579
2019-01-04T07:55:44.246Z,102585
2019-01-04T07:58:13.863Z,102580
2019-01-04T08:00:42.678Z,102585
2019-01-04T08:03:11.511Z,102589
2019-01-04T08:05:40.345Z,102593
2019-01-04T08:08:09.180Z,102588
2019-01-04T08:10:38.024Z,102593
2019-01-04T08:13:06.868Z,102594
2019-01-04T08:15:35.724Z,102591
2019-01-04T08:18:04.574Z,102602
2019-01-04T08:20:34.145Z,102598
2019-01-04T08:23:02.985Z,102582
2019-01-04T08:25:32.555Z,102584
2019-01-04T08:28:02.133Z,102583
2019-01-04T08:30:30.969Z,102582
2019-01-04T08:33:00.562Z,102591
2019-01-04T08:35:29.420Z,102591
2019-01-04T08:37:58.663Z,102594
2019-01-04T08:40:27.508Z,102593
2019-01-04T08:42:56.347Z,102587
2019-01-04T08:45:25.209Z,102589
2019-01-04T08:47:54.084Z,102598
2019-01-04T08:50:23.947Z,102582
2019-01-04T08:52:52.793Z,102588
2019-01-04T08:55:21.629Z,102591
2019-01-04T08:57:50.458Z,102590
2019-01-04T09:00:19.307Z,102593
2019-01-04T09:02:48.155Z,102589
2019-01-04T09:05:16.980Z,102577
2019-01-04T09:07:45.817Z,102571
2019-01-04T09:10:14.682Z,102572
2019-01-04T09:12:44.231Z,102591
2019-01-04T09:15:13.065Z,102591
2019-01-04T09:17:41.914Z,102594
2019-01-04T09:20:10.748Z,102590
2019-01-04T09:22:39.583Z,102595
2019-01-04T09:25:08.429Z,102596
2019-01-04T09:27:37.256Z,102591
2019-01-04T09:30:06.138Z,102591
2019-01-04T09:32:34.965Z,102585
2019-01-04T09:35:04.556Z,102580
2019-01-04T09:37:34.144Z,102584
2019-01-04T09:40:02.968Z,102581
2019-01-04T09:42:31.856Z,102579
2019-01-04T09:45:01.447Z,102581
2019-01-04T09:47:30.303Z,102561
2019-01-04T09:49:59.133Z,102574
2019-01-04T09:52:28.731Z,102574
2019-01-04T09:54:58.318Z,102573
2019-01-04T09:57:27.157Z,102568
2019-01-04T09:59:56.001Z,102562
2019-01-04T10:02:25.587Z,102557
2019-01-04T10:04:54.418Z,102548
2019-01-04T10:07:24.015Z,102545
2019-01-04T10:09:52.879Z,102549
2019-01-04T10:12:21.740Z,102531
2019-01-04T10:14:50.569Z,102533
2019-01-04T10:17:19.414Z,102529
2019-01-04T10:19:48.257Z,102525
2019-01-04T10:22:17.221Z,102525
2019-01-04T10:24:46.053Z,102516
2019-01-04T10:27:15.645Z,102508
2019-01-04T10:29:44.495Z,102510
2019-01-04T10:32:13.317Z,102500
2019-01-04T10:34:42.183Z,102498
2019-01-04T10:37:11.031Z,102490
2019-01-04T10:39:39.864Z,102491
2019-01-04T10:42:08.703Z,102486
2019-01-04T10:44:37.582Z,102483
2019-01-04T10:47:06.417Z,102475
2019-01-04T10:49:35.248Z,102479
2019-01-04T10:52:04.826Z,102483
2019-01-04T10:54:33.662Z,102479
2019-01-04T10:57:02.501Z,102473
2019-01-04T10:59:31.344Z,102472
2019-01-04T11:02:00.184Z,102467
2019-01-04T11:04:29.011Z,102468
2019-01-04T11:06:57.849Z,102462
2019-01-04T11:09:26.691Z,102467
2019-01-04T11:11:55.583Z,102480
2019-01-04T11:14:25.165Z,102470
2019-01-04T11:16:54.000Z,102473
2019-01-04T11:19:22.848Z,102460
2019-01-04T11:21:51.713Z,102458
2019-01-04T11:27:06.466Z,102452
2019-01-04T11:29:38.687Z,102458
2019-01-04T11:32:07.535Z,102444
2019-01-04T11:34:45.937Z,102447
2019-01-04T11:37:24.616Z,102444
2019-01-04T11:39:59.469Z,102435
2019-01-04T11:42:29.221Z,102435
2019-01-04T11:47:40.103Z,102434
2019-01-04T11:52:57.109Z,102425
2019-01-04T11:55:25.943Z,102419
2019-01-04T11:57:55.411Z,102413
2019-01-04T12:00:24.255Z,102400
2019-01-04T12:02:54.005Z,102390
2019-01-04T12:05:22.762Z,102391
2019-01-04T12:07:52.330Z,102390
2019-01-04T12:10:21.186Z,102388
2019-01-04T12:12:50.068Z,102384
2019-01-04T12:15:18.916Z,102385
2019-01-04T12:17:47.749Z,102377
2019-01-04T12:20:16.607Z,102376
2019-01-04T12:22:45.445Z,102369
2019-01-04T12:25:14.292Z,102377
2019-01-04T12:27:43.115Z,102383
2019-01-04T12:30:11.954Z,102360
2019-01-04T12:32:40.801Z,102350
2019-01-04T12:35:09.669Z,102340
2019-01-04T12:37:38.507Z,102340
2019-01-04T12:40:07.352Z,102349
2019-01-04T12:42:36.205Z,102342
2019-01-04T12:45:05.783Z,102356
2019-01-04T12:47:34.613Z,102356
2019-01-04T12:50:04.202Z,102364
2019-01-04T12:52:33.771Z,102366
2019-01-04T12:55:02.618Z,102364
2019-01-04T12:57:32.184Z,102359
2019-01-04T13:00:01.043Z,102355
2019-01-04T13:02:29.892Z,102356
2019-01-04T13:04:59.486Z,102352
2019-01-04T13:07:28.318Z,102349
2019-01-04T13:09:57.164Z,102335
2019-01-04T13:12:26.011Z,102348
2019-01-04T13:14:54.843Z,102342
2019-01-04T13:17:24.443Z,102332
2019-01-04T13:19:53.281Z,102344
2019-01-04T13:22:22.107Z,102348
2019-01-04T13:24:50.972Z,102345
2019-01-04T13:27:19.826Z,102355
2019-01-04T13:29:49.396Z,102350
2019-01-04T13:32:18.984Z,102343
2019-01-04T13:34:47.842Z,102338
2019-01-04T13:37:17.407Z,102337
2019-01-04T13:39:46.252Z,102332
2019-01-04T13:42:15.109Z,102337
2019-01-04T13:44:44.686Z,102332
2019-01-04T13:47:13.541Z,102325
2019-01-04T13:49:42.378Z,102327
2019-01-04T13:52:11.242Z,102317
2019-01-04T13:54:40.084Z,102320
2019-01-04T13:57:08.929Z,102304
2019-01-04T13:59:37.766Z,102307
2019-01-04T14:02:06.637Z,102317
2019-01-04T14:04:36.217Z,102314
2019-01-04T14:07:05.067Z,102307
2019-01-04T14:09:33.905Z,102306
2019-01-04T14:12:02.746Z,102298
2019-01-04T14:14:31.602Z,102291
2019-01-04T14:17:00.441Z,102278
2019-01-04T14:19:29.283Z,102261
2019-01-04T14:21:58.145Z,102265
2019-01-04T14:24:26.983Z,102265
2019-01-04T14:26:55.821Z,102270
2019-01-04T14:29:24.659Z,102263
2019-01-04T14:31:53.502Z,102262
2019-01-04T14:34:22.345Z,102249
2019-01-04T14:36:51.227Z,102235
2019-01-04T14:39:20.761Z,102228
2019-01-04T14:41:49.604Z,102236
2019-01-04T14:44:18.439Z,102218
2019-01-04T14:46:47.287Z,102213
2019-01-04T14:49:16.167Z,102219
2019-01-04T14:51:44.961Z,102218
2019-01-04T14:54:13.796Z,102221
2019-01-04T14:56:42.639Z,102229
2019-01-04T14:59:11.486Z,102228
2019-01-04T15:01:40.323Z,102216
2019-01-04T15:04:09.182Z,102233
2019-01-04T15:06:38.034Z,102234
2019-01-04T15:09:06.861Z,102239
2019-01-04T15:11:35.700Z,102232
2019-01-04T15:14:04.540Z,102226
2019-01-04T15:16:34.115Z,102199
2019-01-04T15:19:02.949Z,102199
2019-01-04T15:21:31.785Z,102198
2019-01-04T15:24:00.646Z,102193
2019-01-04T15:26:29.503Z,102181
2019-01-04T15:28:59.111Z,102184
2019-01-04T15:31:28.695Z,102193
2019-01-04T15:33:58.312Z,102197
2019-01-04T15:36:27.107Z,102201
2019-01-04T15:38:56.693Z,102209
2019-01-04T15:41:25.547Z,102221
2019-01-04T15:43:54.388Z,102216
2019-01-04T15:46:23.345Z,102231
2019-01-04T15:48:52.192Z,102216
2019-01-04T15:51:21.040Z,102221
2019-01-04T15:53:49.892Z,102213
2019-01-04T15:56:18.732Z,102209
2019-01-04T15:58:47.593Z,102213
2019-01-04T16:01:16.440Z,102217
2019-01-04T16:03:45.309Z,102216
2019-01-04T16:06:14.151Z,102217
2019-01-04T16:08:42.999Z,102222
2019-01-04T16:11:12.612Z,102207
2019-01-04T16:13:41.513Z,102211
2019-01-04T16:16:10.362Z,102208
2019-01-04T16:18:39.282Z,102223
2019-01-04T16:21:08.052Z,102222
2019-01-04T16:23:37.637Z,102212
2019-01-04T16:26:06.471Z,102221
2019-01-04T16:28:35.325Z,102227
2019-01-04T16:31:04.174Z,102227
2019-01-04T16:33:33.014Z,102230
2019-01-04T16:36:01.865Z,102231
2019-01-04T16:38:30.752Z,102228
2019-01-04T16:40:59.604Z,102233
2019-01-04T16:43:28.439Z,102229
2019-01-04T16:45:57.300Z,102231
2019-01-04T16:48:26.171Z,102230
2019-01-04T16:50:55.091Z,102236
2019-01-04T16:53:24.633Z,102244
2019-01-04T16:55:53.499Z,102248
2019-01-04T16:58:22.390Z,102249
2019-01-04T17:00:51.189Z,102239
2019-01-04T17:03:20.098Z,102258
2019-01-04T17:05:52.127Z,102250
2019-01-04T17:08:20.596Z,102241
2019-01-04T17:10:49.434Z,102240
2019-01-04T17:13:18.339Z,102245
2019-01-04T17:15:47.161Z,102245
2019-01-04T17:18:15.998Z,102244
2019-01-04T17:20:51.166Z,102234
2019-01-04T17:23:20.017Z,102229
2019-01-04T17:25:49.499Z,102231
2019-01-04T17:28:18.327Z,102220
2019-01-04T17:30:47.907Z,102232
2019-01-04T17:33:16.755Z,102233
2019-01-04T17:35:45.581Z,102232
2019-01-04T17:38:14.428Z,102220
2019-01-04T17:40:43.261Z,102231
2019-01-04T17:43:12.119Z,102230
2019-01-04T17:45:40.977Z,102223
2019-01-04T17:48:10.584Z,102215
2019-01-04T17:50:39.389Z,102203
2019-01-04T17:53:08.247Z,102206
2019-01-04T17:55:37.100Z,102210
2019-01-04T17:58:05.989Z,102198
2019-01-04T18:00:34.843Z,102204
2019-01-04T18:03:03.771Z,102213
2019-01-04T18:05:32.622Z,102209
2019-01-04T18:08:01.463Z,102213
2019-01-04T18:10:30.308Z,102206
2019-01-04T18:12:59.228Z,102212
2019-01-04T18:15:28.057Z,102207
2019-01-04T18:17:58.661Z,102196
2019-01-04T18:20:27.272Z,102194
2019-01-04T18:22:56.870Z,102182
2019-01-04T18:25:25.729Z,102191
2019-01-04T18:27:54.588Z,102188
2019-01-04T18:30:23.471Z,102196
2019-01-04T18:32:52.314Z,102192
2019-01-04T18:35:21.167Z,102193
2019-01-04T18:37:50.034Z,102190
2019-01-04T18:40:18.871Z,102187
2019-01-04T18:42:47.713Z,102188
2019-01-04T18:45:16.566Z,102190
2019-01-04T18:47:45.412Z,102215
2019-01-04T18:50:14.252Z,102191
2019-01-04T18:52:43.849Z,102193
2019-01-04T18:55:12.671Z,102198
2019-01-04T18:57:41.524Z,102187
2019-01-04T19:00:10.391Z,102198
2019-01-04T19:02:39.219Z,102190
2019-01-04T19:05:08.073Z,102171
2019-01-04T19:07:40.614Z,102159
2019-01-04T19:10:09.478Z,102162
2019-01-04T19:12:39.040Z,102152
2019-01-04T19:15:07.882Z,102157
2019-01-04T19:17:37.456Z,102157
2019-01-04T19:20:06.297Z,102157
2019-01-04T19:22:35.159Z,102157
2019-01-04T19:25:04.749Z,102155
2019-01-04T19:27:33.617Z,102145
2019-01-04T19:30:02.458Z,102145
2019-01-04T19:32:31.308Z,102147
2019-01-04T19:35:00.183Z,102142
2019-01-04T19:37:29.005Z,102144
2019-01-04T19:39:57.921Z,102147
2019-01-04T19:42:26.774Z,102153
2019-01-04T19:44:55.627Z,102161
2019-01-04T19:48:43.254Z,102160
2019-01-04T19:51:12.084Z,102156
2019-01-04T19:53:41.524Z,102156
2019-01-04T19:56:10.543Z,102147
2019-01-04T19:58:39.291Z,102150
2019-01-04T20:01:08.139Z,102146
2019-01-04T20:03:37.853Z,102142
2019-01-04T20:17:18.705Z,102155
2019-01-04T20:19:48.316Z,102152
2019-01-04T20:22:20.120Z,102146
2019-01-04T20:24:49.706Z,102139
2019-01-04T20:27:19.395Z,102141
2019-01-04T20:29:48.313Z,102146
2019-01-04T20:32:22.575Z,102148
2019-01-04T20:34:51.482Z,102152
2019-01-04T20:37:20.372Z,102182
2019-01-04T20:39:49.199Z,102165
2019-01-04T20:42:20.973Z,102162
2019-01-04T20:44:50.654Z,102166
2019-01-04T20:47:22.365Z,102165
2019-01-04T20:49:56.829Z,102167
2019-01-04T20:52:27.177Z,102161
2019-01-04T20:55:02.077Z,102174
2019-01-04T20:57:37.208Z,102166
2019-01-04T21:00:06.795Z,102168
2019-01-04T21:02:41.047Z,102176
2019-01-04T21:05:09.905Z,102176
2019-01-04T21:07:39.545Z,102176
2019-01-04T21:10:13.997Z,102171
2019-01-04T21:12:44.776Z,102169
2019-01-04T21:15:13.638Z,102155
2019-01-04T21:17:45.324Z,102174
2019-01-04T21:20:15.142Z,102170
2019-01-04T21:22:44.029Z,102170
2019-01-04T21:25:15.827Z,102169
2019-01-04T21:27:48.575Z,102173
2019-01-04T21:30:22.053Z,102169
2019-01-04T21:32:54.836Z,102167
2019-01-04T21:35:23.694Z,102171
2019-01-04T21:37:52.628Z,102170
2019-01-04T21:40:22.331Z,102175
2019-01-04T21:42:52.774Z,102174
2019-01-04T21:45:23.499Z,102172
2019-01-04T21:47:54.194Z,102177
2019-01-04T21:50:23.933Z,102179
2019-01-04T21:52:58.408Z,102173
2019-01-04T21:55:32.957Z,102182
2019-01-04T21:58:07.742Z,102188
2019-01-04T22:00:38.240Z,102173
2019-01-04T22:03:09.894Z,102177
2019-01-04T22:05:40.422Z,102172
2019-01-04T22:08:09.292Z,102163
2019-01-04T22:10:43.664Z,102172
2019-01-04T22:13:16.471Z,102166
2019-01-04T22:15:46.248Z,102156
2019-01-04T22:18:20.960Z,102156
2019-01-04T22:20:56.172Z,102151
2019-01-04T22:23:27.834Z,102159
2019-01-04T22:26:02.398Z,102153
2019-01-04T22:28:36.704Z,102158
2019-01-04T22:31:07.470Z,102148
2019-01-04T22:33:40.272Z,102153
2019-01-04T22:36:11.925Z,102150
2019-01-04T22:38:41.527Z,102151
2019-01-04T22:41:15.299Z,102148
2019-01-04T22:43:45.025Z,102145
2019-01-04T22:46:14.732Z,102143
2019-01-04T22:48:45.536Z,102148
2019-01-04T22:51:17.230Z,102145
2019-01-04T22:53:49.838Z,102149
2019-01-04T22:56:24.136Z,102146
2019-01-04T22:58:53.061Z,102142
2019-01-04T23:01:24.695Z,102138
2019-01-04T23:03:53.594Z,102132
2019-01-04T23:06:23.380Z,102137
2019-01-04T23:08:52.300Z,102131
2019-01-04T23:11:25.079Z,102134
2019-01-04T23:13:53.922Z,102139
2019-01-04T23:16:28.344Z,102135
2019-01-04T23:19:02.781Z,102131
2019-01-04T23:24:31.684Z,102131
2019-01-04T23:27:06.044Z,102137
2019-01-04T23:29:37.512Z,102129
2019-01-04T23:32:06.378Z,102130
2019-01-04T23:34:40.590Z,102120
2019-01-04T23:37:14.906Z,102114
2019-01-04T23:39:49.983Z,102115
2019-01-04T23:42:20.548Z,102113
2019-01-04T23:44:54.384Z,102115
2019-01-04T23:47:29.474Z,102112
2019-01-04T23:50:03.894Z,102105
2019-01-04T23:52:34.487Z,102110
2019-01-04T23:55:08.927Z,102118
2019-01-04T23:57:42.620Z,102106
